createdAt,value
2023-03-13T00:01:12.412Z,13.46
2023-03-13T00:03:39.462Z,13.43
2023-03-13T00:06:06.654Z,13.43
2023-03-13T00:08:33.655Z,13.43
2023-03-13T00:11:05.032Z,13.43
2023-03-13T00:13:31.815Z,13.41
2023-03-13T00:16:10.165Z,13.42
2023-03-13T00:18:37.131Z,13.41
2023-03-13T00:21:09.202Z,13.43
2023-03-13T00:23:38.189Z,13.41
2023-03-13T00:26:08.396Z,13.40
2023-03-13T00:28:37.073Z,13.39
2023-03-13T00:31:15.843Z,13.38
2023-03-13T00:33:45.251Z,13.40
2023-03-13T00:36:19.057Z,13.38
2023-03-13T00:38:46.304Z,13.39
2023-03-13T00:41:18.181Z,13.37
2023-03-13T00:43:45.999Z,13.38
2023-03-13T00:46:14.813Z,13.37
2023-03-13T00:48:41.931Z,13.36
2023-03-13T00:51:09.146Z,13.35
2023-03-13T00:53:36.205Z,13.35
2023-03-13T00:56:06.136Z,13.33
2023-03-13T00:58:35.417Z,13.34
2023-03-13T01:01:13.680Z,13.33
2023-03-13T01:03:42.747Z,13.32
2023-03-13T01:06:12.940Z,13.32
2023-03-13T01:08:40.006Z,13.31
2023-03-13T01:11:16.699Z,13.31
2023-03-13T01:13:44.242Z,13.31
2023-03-13T01:16:11.232Z,13.31
2023-03-13T01:18:40.020Z,13.31
2023-03-13T01:21:07.422Z,13.31
2023-03-13T01:23:34.689Z,13.31
2023-03-13T01:26:04.374Z,13.29
2023-03-13T01:28:31.444Z,13.28
2023-03-13T01:30:58.318Z,13.28
2023-03-13T01:33:25.516Z,13.29
2023-03-13T01:35:52.578Z,13.28
2023-03-13T01:38:19.327Z,13.28
2023-03-13T01:40:49.696Z,13.25
2023-03-13T01:43:26.997Z,13.26
2023-03-13T01:46:08.219Z,13.23
2023-03-13T01:49:06.473Z,13.22
2023-03-13T01:51:47.788Z,13.20
2023-03-13T01:54:20.245Z,13.22
2023-03-13T01:56:53.334Z,13.21
2023-03-13T01:59:27.181Z,13.20
2023-03-13T02:01:57.541Z,13.20
2023-03-13T02:04:28.002Z,13.21
2023-03-13T02:06:58.286Z,13.21
2023-03-13T02:09:30.255Z,13.21
2023-03-13T02:12:15.484Z,13.19
2023-03-13T02:14:45.621Z,13.20
2023-03-13T02:17:13.304Z,13.20
2023-03-13T02:19:48.640Z,13.18
2023-03-13T02:22:21.381Z,13.20
2023-03-13T02:25:10.244Z,13.18
2023-03-13T02:27:37.266Z,13.20
2023-03-13T02:30:06.203Z,13.18
2023-03-13T02:32:33.367Z,13.17
2023-03-13T02:35:13.726Z,13.17
2023-03-13T02:37:44.657Z,13.17
2023-03-13T02:40:22.186Z,13.18
2023-03-13T02:42:50.283Z,13.16
2023-03-13T02:45:18.387Z,13.18
2023-03-13T02:47:45.257Z,13.19
2023-03-13T02:50:13.643Z,13.17
2023-03-13T02:52:50.678Z,13.19
2023-03-13T02:55:39.240Z,13.18
2023-03-13T02:58:06.333Z,13.18
2023-03-13T03:00:36.118Z,13.17
2023-03-13T03:03:02.851Z,13.17
2023-03-13T03:05:29.849Z,13.17
2023-03-13T03:07:57.776Z,13.17
2023-03-13T03:10:25.048Z,13.16
2023-03-13T03:12:52.210Z,13.17
2023-03-13T03:15:19.056Z,13.17
2023-03-13T03:17:47.780Z,13.17
2023-03-13T03:20:14.553Z,13.15
2023-03-13T03:22:43.235Z,13.15
2023-03-13T03:25:10.544Z,13.17
2023-03-13T03:27:37.375Z,13.17
2023-03-13T03:30:22.749Z,13.16
2023-03-13T03:32:51.607Z,13.16
2023-03-13T03:35:20.864Z,13.16
2023-03-13T03:37:47.767Z,13.17
2023-03-13T03:40:15.362Z,13.19
2023-03-13T03:42:42.976Z,13.17
2023-03-13T03:45:10.525Z,13.17
2023-03-13T03:47:37.110Z,13.16
2023-03-13T03:50:04.497Z,13.14
2023-03-13T03:52:39.082Z,13.18
2023-03-13T03:55:06.244Z,13.16
2023-03-13T03:57:33.207Z,13.17
2023-03-13T04:00:00.512Z,13.18
2023-03-13T04:02:27.880Z,13.18
2023-03-13T04:04:54.801Z,13.16
2023-03-13T04:07:26.769Z,13.17
2023-03-13T04:09:53.769Z,13.16
2023-03-13T04:12:26.902Z,13.14
2023-03-13T04:14:55.472Z,13.13
2023-03-13T04:17:22.324Z,13.14
2023-03-13T04:19:49.147Z,13.13
2023-03-13T04:22:16.002Z,13.14
2023-03-13T04:24:48.236Z,13.14
2023-03-13T04:27:15.110Z,13.15
2023-03-13T04:29:43.258Z,13.14
2023-03-13T04:32:23.453Z,13.17
2023-03-13T04:35:08.437Z,13.14
2023-03-13T04:37:53.907Z,13.16
2023-03-13T04:40:39.866Z,13.17
2023-03-13T04:43:24.543Z,13.16
2023-03-13T04:46:11.604Z,13.16
2023-03-13T04:48:38.392Z,13.16
2023-03-13T04:51:23.533Z,13.14
2023-03-13T04:54:13.016Z,13.17
2023-03-13T04:56:57.616Z,13.15
2023-03-13T04:59:47.556Z,13.18
2023-03-13T05:02:23.141Z,13.16
2023-03-13T05:05:08.958Z,13.17
2023-03-13T05:07:56.124Z,13.17
2023-03-13T05:10:43.589Z,13.16
2023-03-13T05:13:25.559Z,13.17
2023-03-13T05:15:52.340Z,13.17
2023-03-13T05:18:54.328Z,13.17
2023-03-13T05:21:50.185Z,13.19
2023-03-13T05:24:37.209Z,13.19
2023-03-13T05:27:36.432Z,13.19
2023-03-13T05:30:25.286Z,13.17
2023-03-13T05:33:12.486Z,13.17
2023-03-13T05:35:47.451Z,13.18
2023-03-13T06:04:09.883Z,13.17
2023-03-13T06:06:38.958Z,13.20
2023-03-13T06:11:47.004Z,13.22
2023-03-13T06:14:13.721Z,13.21
2023-03-13T06:16:46.728Z,13.20
2023-03-13T06:19:24.516Z,13.19
2023-03-13T06:21:52.098Z,13.17
2023-03-13T06:24:18.823Z,13.16
2023-03-13T06:26:49.581Z,13.17
2023-03-13T06:29:17.498Z,13.16
2023-03-13T06:31:44.416Z,13.13
2023-03-13T06:34:12.581Z,13.12
2023-03-13T06:36:39.346Z,13.13
2023-03-13T06:39:06.181Z,13.13
2023-03-13T06:41:33.324Z,13.13
2023-03-13T06:44:00.188Z,13.15
2023-03-13T06:46:27.284Z,13.14
2023-03-13T06:48:54.012Z,13.13
2023-03-13T06:51:22.374Z,13.11
2023-03-13T06:53:49.341Z,13.12
2023-03-13T06:56:16.225Z,13.12
2023-03-13T06:58:43.100Z,13.13
2023-03-13T07:01:11.965Z,13.12
2023-03-13T07:03:39.206Z,13.12
2023-03-13T07:06:06.234Z,13.12
2023-03-13T07:08:33.926Z,13.12
2023-03-13T07:11:06.196Z,13.11
2023-03-13T07:13:32.916Z,13.12
2023-03-13T07:16:01.488Z,13.11
2023-03-13T07:18:28.419Z,13.11
2023-03-13T07:20:56.651Z,13.34
2023-03-13T07:23:24.867Z,13.78
2023-03-13T07:26:04.092Z,13.80
2023-03-13T07:28:31.691Z,13.84
2023-03-13T07:31:16.537Z,13.90
2023-03-13T07:33:44.871Z,13.90
2023-03-13T07:36:13.232Z,13.92
2023-03-13T07:38:40.110Z,13.86
2023-03-13T07:41:07.157Z,13.72
2023-03-13T07:43:33.993Z,13.62
2023-03-13T07:46:03.706Z,13.59
2023-03-13T07:48:41.401Z,13.58
2023-03-13T07:51:12.476Z,13.56
2023-03-13T07:53:39.423Z,13.56
2023-03-13T07:56:10.155Z,13.56
2023-03-13T07:58:38.674Z,13.55
2023-03-13T08:01:11.164Z,13.56
2023-03-13T08:03:38.343Z,13.53
2023-03-13T08:06:11.519Z,13.54
2023-03-13T08:08:38.955Z,13.71
2023-03-13T08:11:14.095Z,13.84
2023-03-13T08:13:41.596Z,14.06
2023-03-13T08:16:11.567Z,14.06
2023-03-13T08:18:40.736Z,14.10
2023-03-13T08:21:18.595Z,14.08
2023-03-13T08:23:45.766Z,14.14
2023-03-13T08:26:15.612Z,14.23
2023-03-13T08:28:44.369Z,14.21
2023-03-13T08:31:19.781Z,14.19
2023-03-13T08:33:48.092Z,14.20
2023-03-13T08:36:23.092Z,14.09
2023-03-13T08:38:50.634Z,14.17
2023-03-13T08:41:22.893Z,14.18
2023-03-13T08:43:52.616Z,14.14
2023-03-13T08:46:20.152Z,14.17
2023-03-13T08:48:55.119Z,14.04
2023-03-13T08:51:24.423Z,13.93
2023-03-13T08:53:52.172Z,13.87
2023-03-13T08:56:21.695Z,13.82
2023-03-13T08:58:52.107Z,13.81
2023-03-13T09:01:19.966Z,13.81
2023-03-13T09:03:47.005Z,13.79
2023-03-13T09:06:14.058Z,13.78
2023-03-13T09:08:41.807Z,13.76
2023-03-13T09:11:11.279Z,13.75
2023-03-13T09:13:42.450Z,13.73
2023-03-13T09:16:29.258Z,13.73
2023-03-13T09:18:57.253Z,13.70
2023-03-13T09:21:30.198Z,13.71
2023-03-13T09:23:57.979Z,13.71
2023-03-13T09:26:25.918Z,13.71
2023-03-13T09:28:53.184Z,13.71
2023-03-13T09:31:23.206Z,13.85
2023-03-13T09:33:50.893Z,13.99
2023-03-13T09:36:21.839Z,14.10
2023-03-13T09:38:51.016Z,14.13
2023-03-13T09:41:18.114Z,13.99
2023-03-13T09:43:50.828Z,13.91
2023-03-13T09:46:26.640Z,13.88
2023-03-13T09:48:59.934Z,13.87
2023-03-13T09:51:37.118Z,13.86
2023-03-13T09:54:08.478Z,13.86
2023-03-13T09:56:47.965Z,13.87
2023-03-13T09:59:24.598Z,13.87
2023-03-13T10:01:54.513Z,13.88
2023-03-13T10:04:44.297Z,13.89
2023-03-13T10:07:12.171Z,13.89
2023-03-13T10:09:40.914Z,13.89
2023-03-13T10:12:17.308Z,13.90
2023-03-13T10:15:09.109Z,13.89
2023-03-13T10:17:38.409Z,13.89
2023-03-13T10:20:10.831Z,13.89
2023-03-13T10:22:38.625Z,13.89
2023-03-13T10:25:30.437Z,13.89
2023-03-13T10:27:58.074Z,13.87
2023-03-13T10:30:25.994Z,13.88
2023-03-13T10:33:07.654Z,13.85
2023-03-13T10:35:43.095Z,13.87
2023-03-13T10:38:14.023Z,13.87
2023-03-13T10:40:42.917Z,13.89
2023-03-13T10:43:22.193Z,13.89
2023-03-13T10:45:49.052Z,13.89
2023-03-13T10:48:19.940Z,13.89
2023-03-13T10:50:49.443Z,13.89
2023-03-13T10:53:31.449Z,13.94
2023-03-13T10:56:10.328Z,13.93
2023-03-13T10:58:46.040Z,13.91
2023-03-13T11:01:22.957Z,13.91
2023-03-13T11:03:51.999Z,13.92
2023-03-13T11:06:50.626Z,13.96
2023-03-13T11:09:17.968Z,13.95
2023-03-13T11:11:48.526Z,14.12
2023-03-13T11:14:21.679Z,14.39
2023-03-13T11:16:51.544Z,14.40
2023-03-13T11:19:30.040Z,14.37
2023-03-13T11:22:13.947Z,14.23
2023-03-13T11:25:03.577Z,14.14
2023-03-13T11:27:58.164Z,14.12
2023-03-13T11:30:51.069Z,14.11
2023-03-13T11:33:47.720Z,14.12
2023-03-13T11:36:29.099Z,14.15
2023-03-13T11:39:00.255Z,14.12
2023-03-13T11:41:29.707Z,14.11
2023-03-13T11:44:23.154Z,14.12
2023-03-13T11:46:55.782Z,14.14
2023-03-13T11:50:09.076Z,14.14
2023-03-13T11:52:43.806Z,14.10
2023-03-13T11:55:21.564Z,14.11
2023-03-13T11:58:00.106Z,14.10
2023-03-13T12:00:46.269Z,14.12
2023-03-13T12:03:16.809Z,14.08
2023-03-13T12:05:59.162Z,14.13
2023-03-13T12:08:41.594Z,14.11
2023-03-13T12:11:29.026Z,14.10
2023-03-13T12:14:02.921Z,14.08
2023-03-13T12:16:44.879Z,14.18
2023-03-13T12:19:17.851Z,14.50
2023-03-13T12:21:53.262Z,14.49
2023-03-13T12:24:36.598Z,14.43
2023-03-13T12:27:18.398Z,14.35
2023-03-13T12:29:45.102Z,14.27
2023-03-13T12:32:24.821Z,14.25
2023-03-13T12:35:03.116Z,14.29
2023-03-13T12:37:49.675Z,14.32
2023-03-13T12:40:32.294Z,14.28
2023-03-13T12:43:15.983Z,14.24
2023-03-13T12:46:14.999Z,14.28
2023-03-13T12:49:00.648Z,14.24
2023-03-13T12:51:37.493Z,14.23
2023-03-13T12:54:21.770Z,14.31
2023-03-13T12:56:57.289Z,14.32
2023-03-13T12:59:39.963Z,14.29
2023-03-13T13:02:20.457Z,14.31
2023-03-13T13:04:49.690Z,14.33
2023-03-13T13:07:38.119Z,14.43
2023-03-13T13:10:10.947Z,14.44
2023-03-13T13:12:45.660Z,14.42
2023-03-13T13:15:28.967Z,14.40
2023-03-13T13:18:25.656Z,14.40
2023-03-13T13:21:07.308Z,14.40
2023-03-13T13:23:39.375Z,14.36
2023-03-13T13:26:26.678Z,14.32
2023-03-13T13:28:54.603Z,14.31
2023-03-13T13:31:50.894Z,14.27
2023-03-13T13:34:32.281Z,14.29
2023-03-13T13:36:59.736Z,14.26
2023-03-13T13:39:48.125Z,14.24
2023-03-13T13:42:29.880Z,14.25
2023-03-13T13:45:22.554Z,14.23
2023-03-13T13:47:50.636Z,14.24
2023-03-13T13:50:25.923Z,14.22
2023-03-13T13:52:53.603Z,14.18
2023-03-13T13:55:38.781Z,14.16
2023-03-13T13:58:12.074Z,14.15
2023-03-13T14:00:47.403Z,14.14
2023-03-13T14:03:24.430Z,14.12
2023-03-13T14:06:30.683Z,14.11
2023-03-13T14:09:14.661Z,14.12
2023-03-13T14:11:41.351Z,14.12
2023-03-13T14:14:34.657Z,14.09
2023-03-13T14:17:01.511Z,14.07
2023-03-13T14:19:28.648Z,14.07
2023-03-13T14:22:04.742Z,14.06
2023-03-13T14:24:31.700Z,14.06
2023-03-13T14:26:58.380Z,14.04
2023-03-13T14:29:26.449Z,14.04
2023-03-13T14:31:53.423Z,14.06
2023-03-13T14:34:21.067Z,14.04
2023-03-13T14:36:49.171Z,14.05
2023-03-13T14:39:31.135Z,14.49
2023-03-13T14:42:13.665Z,14.71
2023-03-13T14:44:42.918Z,14.78
2023-03-13T14:47:19.075Z,14.77
2023-03-13T14:49:47.355Z,14.86
2023-03-13T14:52:20.681Z,14.96
2023-03-13T14:54:55.218Z,15.03
2023-03-13T14:57:27.066Z,15.14
2023-03-13T15:00:29.591Z,15.27
2023-03-13T15:03:16.494Z,15.43
2023-03-13T15:05:47.683Z,15.56
2023-03-13T15:08:22.895Z,15.54
2023-03-13T15:10:53.789Z,15.56
2023-03-13T15:13:25.297Z,15.66
2023-03-13T15:15:53.554Z,15.75
2023-03-13T15:18:22.335Z,15.80
2023-03-13T15:20:57.531Z,15.85
2023-03-13T15:23:24.905Z,15.85
2023-03-13T15:25:51.674Z,15.93
2023-03-13T15:28:21.350Z,15.99
2023-03-13T15:30:51.214Z,16.03
2023-03-13T15:33:20.575Z,16.12
2023-03-13T15:35:47.593Z,16.14
2023-03-13T15:38:17.377Z,16.21
2023-03-13T15:40:45.118Z,16.28
2023-03-13T15:43:13.206Z,16.31
2023-03-13T15:45:41.998Z,16.35
2023-03-13T15:48:18.298Z,16.52
2023-03-13T15:50:46.590Z,16.53
2023-03-13T15:53:19.454Z,16.53
2023-03-13T15:55:50.441Z,16.53
2023-03-13T15:58:17.926Z,16.58
2023-03-13T16:00:49.144Z,16.59
2023-03-13T16:03:22.002Z,16.57
2023-03-13T16:05:49.211Z,16.60
2023-03-13T16:08:34.343Z,16.62
2023-03-13T16:11:02.213Z,16.62
2023-03-13T16:13:28.853Z,16.67
2023-03-13T16:15:56.683Z,16.65
2023-03-13T16:18:24.915Z,16.68
2023-03-13T16:20:53.115Z,16.64
2023-03-13T16:23:19.863Z,16.64
2023-03-13T16:25:48.623Z,16.63
2023-03-13T16:28:16.027Z,16.66
2023-03-13T16:30:47.786Z,16.66
2023-03-13T16:33:14.936Z,16.65
2023-03-13T16:35:42.122Z,16.66
2023-03-13T16:38:12.126Z,16.63
2023-03-13T16:40:38.944Z,16.66
2023-03-13T16:43:05.810Z,16.71
2023-03-13T16:45:32.425Z,16.70
2023-03-13T16:47:59.160Z,16.83
2023-03-13T16:50:25.811Z,16.85
2023-03-13T16:52:54.101Z,16.95
2023-03-13T16:55:24.734Z,17.01
2023-03-13T16:57:52.453Z,16.91
2023-03-13T17:00:21.521Z,16.94
2023-03-13T17:02:48.685Z,16.93
2023-03-13T17:05:16.194Z,16.94
2023-03-13T17:07:48.210Z,16.90
2023-03-13T17:10:22.468Z,16.90
2023-03-13T17:12:50.216Z,16.92
2023-03-13T17:15:18.843Z,16.90
2023-03-13T17:17:51.507Z,16.87
2023-03-13T17:20:22.329Z,16.88
2023-03-13T17:22:49.640Z,16.88
2023-03-13T17:25:16.713Z,16.92
2023-03-13T17:27:44.108Z,16.96
2023-03-13T17:30:21.919Z,16.89
2023-03-13T17:32:50.257Z,16.85
2023-03-13T17:35:18.250Z,16.90
2023-03-13T17:37:45.097Z,16.93
2023-03-13T17:40:12.585Z,16.97
2023-03-13T17:42:39.449Z,16.97
2023-03-13T17:45:06.911Z,16.97
2023-03-13T17:47:33.565Z,16.94
2023-03-13T17:50:00.443Z,17.10
2023-03-13T17:52:27.314Z,17.22
2023-03-13T17:54:54.148Z,17.24
2023-03-13T17:57:22.616Z,17.34
2023-03-13T17:59:49.568Z,17.29
2023-03-13T18:02:17.453Z,17.22
2023-03-13T18:04:45.144Z,17.20
2023-03-13T18:07:32.992Z,17.26
2023-03-13T18:09:59.745Z,17.22
2023-03-13T18:12:26.551Z,17.19
2023-03-13T18:14:53.325Z,17.21
2023-03-13T18:17:22.617Z,17.16
2023-03-13T18:19:50.097Z,17.21
2023-03-13T18:22:27.520Z,17.15
2023-03-13T18:24:54.138Z,17.14
2023-03-13T18:27:22.148Z,17.20
2023-03-13T18:29:49.489Z,17.22
2023-03-13T18:32:18.060Z,17.14
2023-03-13T18:34:45.378Z,17.16
2023-03-13T18:37:30.452Z,17.18
2023-03-13T18:39:58.136Z,17.18
2023-03-13T18:42:25.326Z,17.18
2023-03-13T18:44:52.918Z,17.21
2023-03-13T18:47:22.160Z,17.23
2023-03-13T18:49:49.956Z,17.22
2023-03-13T18:52:17.403Z,17.21
2023-03-13T18:54:44.982Z,17.21
2023-03-13T18:57:20.053Z,17.20
2023-03-13T18:59:46.970Z,17.26
2023-03-13T19:02:16.893Z,17.30
2023-03-13T19:04:44.702Z,17.29
2023-03-13T19:07:18.636Z,17.31
2023-03-13T19:09:47.272Z,17.30
2023-03-13T19:12:15.661Z,17.30
2023-03-13T19:14:43.180Z,17.32
2023-03-13T19:17:23.895Z,17.36
2023-03-13T19:19:50.941Z,17.40
2023-03-13T19:22:17.745Z,17.38
2023-03-13T19:24:44.428Z,17.35
2023-03-13T19:27:14.307Z,17.47
2023-03-13T19:29:40.979Z,17.39
2023-03-13T19:32:12.652Z,17.43
2023-03-13T19:34:39.325Z,17.39
2023-03-13T19:37:06.127Z,17.41
2023-03-13T19:39:34.689Z,17.41
2023-03-13T19:42:01.344Z,17.39
2023-03-13T19:44:28.307Z,17.41
2023-03-13T19:46:55.978Z,17.48
2023-03-13T19:49:23.077Z,17.46
2023-03-13T19:51:49.916Z,17.52
2023-03-13T19:54:16.743Z,17.45
2023-03-13T19:56:45.783Z,17.52
2023-03-13T19:59:18.059Z,17.55
2023-03-13T20:01:45.330Z,17.58
2023-03-13T20:04:12.393Z,17.47
2023-03-13T20:06:40.393Z,17.42
2023-03-13T20:09:09.837Z,17.55
2023-03-13T20:11:36.686Z,17.47
2023-03-13T20:14:03.901Z,17.46
2023-03-13T20:16:33.750Z,17.39
2023-03-13T20:19:01.846Z,17.39
2023-03-13T20:21:31.404Z,17.38
2023-03-13T20:23:59.063Z,17.32
2023-03-13T20:26:28.011Z,17.31
2023-03-13T20:28:55.716Z,17.34
2023-03-13T20:31:28.189Z,17.39
2023-03-13T20:33:56.220Z,17.43
2023-03-13T20:36:24.355Z,17.44
2023-03-13T20:38:51.521Z,17.49
2023-03-13T20:41:24.412Z,17.43
2023-03-13T20:43:52.278Z,17.44
2023-03-13T20:46:19.398Z,17.42
2023-03-13T20:48:46.296Z,17.39
2023-03-13T20:51:13.392Z,17.42
2023-03-13T20:53:41.748Z,17.39
2023-03-13T20:56:10.232Z,17.43
2023-03-13T20:58:37.843Z,17.22
2023-03-13T21:01:05.873Z,17.12
2023-03-13T21:03:35.470Z,17.03
2023-03-13T21:06:18.390Z,16.94
2023-03-13T21:08:46.141Z,16.89
2023-03-13T21:11:13.380Z,16.79
2023-03-13T21:13:40.059Z,16.71
2023-03-13T21:16:07.385Z,16.66
2023-03-13T21:18:34.334Z,16.65
2023-03-13T21:21:09.910Z,16.58
2023-03-13T21:23:38.058Z,16.51
2023-03-13T21:26:05.366Z,16.47
2023-03-13T21:28:32.453Z,16.44
2023-03-13T21:30:59.416Z,16.43
2023-03-13T21:33:26.354Z,16.38
2023-03-13T21:35:53.458Z,16.36
2023-03-13T21:38:20.546Z,16.32
2023-03-13T21:40:47.203Z,16.29
2023-03-13T21:43:13.949Z,16.27
2023-03-13T21:45:40.706Z,16.22
2023-03-13T21:48:07.350Z,16.17
2023-03-13T21:50:34.009Z,16.16
2023-03-13T21:53:00.721Z,16.14
2023-03-13T21:55:27.461Z,16.13
2023-03-13T21:57:54.122Z,16.09
2023-03-13T22:00:21.467Z,16.08
2023-03-13T22:02:48.129Z,16.08
2023-03-13T22:05:15.091Z,16.07
2023-03-13T22:07:41.923Z,16.04
2023-03-13T22:10:09.563Z,16.04
2023-03-13T22:12:37.340Z,16.02
2023-03-13T22:15:04.731Z,16.00
2023-03-13T22:17:31.718Z,15.95
2023-03-13T22:19:58.462Z,15.91
2023-03-13T22:22:25.800Z,15.91
2023-03-13T22:24:54.153Z,15.89
2023-03-13T22:27:23.297Z,15.84
2023-03-13T22:29:50.065Z,15.80
2023-03-13T22:32:17.023Z,15.79
2023-03-13T22:34:47.111Z,15.78
2023-03-13T22:37:14.440Z,15.73
2023-03-13T22:39:41.447Z,15.72
2023-03-13T22:42:08.220Z,15.69
2023-03-13T22:44:35.085Z,15.68
2023-03-13T22:47:01.763Z,15.66
2023-03-13T22:49:28.815Z,15.65
2023-03-13T22:51:55.597Z,15.64
2023-03-13T22:54:22.380Z,15.62
2023-03-13T22:56:49.134Z,15.58
2023-03-13T22:59:15.809Z,15.59
2023-03-13T23:01:42.558Z,15.54
2023-03-13T23:04:09.249Z,15.52
2023-03-13T23:06:36.039Z,15.51
2023-03-13T23:09:03.382Z,15.50
2023-03-13T23:11:30.215Z,15.48
2023-03-13T23:13:56.939Z,15.46
2023-03-13T23:16:23.922Z,15.45
2023-03-13T23:18:50.863Z,15.45
2023-03-13T23:21:18.084Z,15.44
2023-03-13T23:23:45.107Z,15.43
2023-03-13T23:26:14.930Z,15.39
2023-03-13T23:28:42.043Z,15.38
2023-03-13T23:31:11.034Z,15.37
2023-03-13T23:33:38.344Z,15.35
2023-03-13T23:36:10.264Z,15.31
2023-03-13T23:38:37.265Z,15.29
2023-03-13T23:41:12.465Z,15.24
2023-03-13T23:43:39.639Z,15.24
2023-03-13T23:46:15.089Z,15.24
2023-03-13T23:48:41.816Z,15.22
2023-03-13T23:51:08.725Z,15.24
2023-03-13T23:53:39.836Z,15.21
2023-03-13T23:56:07.023Z,15.20
2023-03-13T23:58:34.201Z,15.19
